createdAt,value
2022-10-20T00:00:36.226Z,3.53
2022-10-20T00:01:57.776Z,3.53
2022-10-20T00:02:59.477Z,3.52
2022-10-20T00:04:01.625Z,3.50
2022-10-20T00:05:03.614Z,3.50
2022-10-20T00:06:17.410Z,3.50
2022-10-20T00:07:19.041Z,3.51
2022-10-20T00:08:21.404Z,3.52
2022-10-20T00:09:23.031Z,3.51
2022-10-20T00:10:24.672Z,3.52
2022-10-20T00:11:28.331Z,3.53
2022-10-20T00:12:29.922Z,3.53
2022-10-20T00:13:31.842Z,3.53
2022-10-20T00:14:33.601Z,3.51
2022-10-20T00:15:35.507Z,3.51
2022-10-20T00:16:39.154Z,3.51
2022-10-20T00:17:40.888Z,3.50
2022-10-20T00:18:43.562Z,3.50
2022-10-20T00:19:48.173Z,3.49
2022-10-20T00:20:51.113Z,3.49
2022-10-20T00:21:52.769Z,3.49
2022-10-20T00:22:54.397Z,3.49
2022-10-20T00:23:59.761Z,3.48
2022-10-20T00:25:01.500Z,3.48
2022-10-20T00:26:07.104Z,3.48
2022-10-20T00:27:09.344Z,3.47
2022-10-20T00:28:11.473Z,3.46
2022-10-20T00:29:13.735Z,3.45
2022-10-20T00:30:15.378Z,3.45
2022-10-20T00:31:19.775Z,3.44
2022-10-20T00:32:21.396Z,3.43
2022-10-20T00:33:24.507Z,3.42
2022-10-20T00:34:26.218Z,3.42
2022-10-20T00:35:27.814Z,3.42
2022-10-20T00:36:29.577Z,3.42
2022-10-20T00:37:31.180Z,3.42
2022-10-20T00:38:34.693Z,3.41
2022-10-20T00:39:36.445Z,3.42
2022-10-20T00:40:38.084Z,3.42
2022-10-20T00:41:40.405Z,3.43
2022-10-20T00:42:46.462Z,3.43
2022-10-20T00:43:57.410Z,3.42
2022-10-20T00:45:00.624Z,3.41
2022-10-20T00:46:02.580Z,3.41
2022-10-20T00:47:04.407Z,3.40
2022-10-20T00:48:16.064Z,3.40
2022-10-20T00:49:25.195Z,3.38
2022-10-20T00:50:33.173Z,3.38
2022-10-20T00:51:35.359Z,3.38
2022-10-20T00:52:38.839Z,3.38
2022-10-20T00:53:40.503Z,3.38
2022-10-20T00:54:42.210Z,3.38
2022-10-20T00:55:48.090Z,3.39
2022-10-20T00:56:51.593Z,3.39
2022-10-20T00:57:57.346Z,3.39
2022-10-20T00:59:01.801Z,3.39
2022-10-20T01:00:05.556Z,3.38
2022-10-20T01:01:07.570Z,3.39
2022-10-20T01:02:10.591Z,3.38
2022-10-20T01:03:20.780Z,3.38
2022-10-20T01:04:23.433Z,3.37
2022-10-20T01:05:25.805Z,3.37
2022-10-20T01:06:28.153Z,3.35
2022-10-20T01:07:29.791Z,3.34
2022-10-20T01:08:31.448Z,3.33
2022-10-20T01:09:33.931Z,3.33
2022-10-20T01:11:02.448Z,3.32
2022-10-20T01:12:28.595Z,3.32
2022-10-20T01:13:59.299Z,3.31
2022-10-20T01:15:28.357Z,3.32
2022-10-20T01:17:11.526Z,3.32
2022-10-20T01:18:31.226Z,3.31
2022-10-20T01:20:09.050Z,3.29
2022-10-20T01:21:41.324Z,3.28
2022-10-20T01:23:16.305Z,3.28
2022-10-20T01:24:30.598Z,3.26
2022-10-20T01:26:22.089Z,3.24
2022-10-20T01:27:31.177Z,3.23
2022-10-20T01:28:59.790Z,3.23
2022-10-20T01:30:12.390Z,3.23
2022-10-20T01:31:25.284Z,3.23
2022-10-20T01:32:41.601Z,3.22
2022-10-20T01:33:56.943Z,3.21
2022-10-20T01:35:25.065Z,3.20
2022-10-20T01:36:47.435Z,3.17
2022-10-20T01:37:55.888Z,3.15
2022-10-20T01:39:29.639Z,3.13
2022-10-20T01:40:51.250Z,3.11
2022-10-20T01:41:59.043Z,3.08
2022-10-20T01:43:08.390Z,3.07
2022-10-20T01:44:16.080Z,3.06
2022-10-20T01:45:22.555Z,3.06
2022-10-20T01:46:27.863Z,3.06
2022-10-20T01:47:32.536Z,3.06
2022-10-20T01:48:37.920Z,3.07
2022-10-20T01:49:44.563Z,3.07
2022-10-20T01:50:49.504Z,3.07
2022-10-20T01:51:51.278Z,3.06
2022-10-20T01:52:59.813Z,3.03
2022-10-20T01:54:01.430Z,3.02
2022-10-20T01:55:14.837Z,3.02
2022-10-20T01:56:40.255Z,3.01
2022-10-20T01:58:00.218Z,2.99
2022-10-20T01:59:20.581Z,2.98
2022-10-20T02:00:23.178Z,2.97
2022-10-20T02:01:45.079Z,2.96
2022-10-20T02:03:10.093Z,2.96
2022-10-20T02:04:12.706Z,2.96
2022-10-20T02:05:44.503Z,2.95
2022-10-20T02:07:01.630Z,2.95
2022-10-20T02:08:34.393Z,2.97
2022-10-20T02:09:46.394Z,2.97
2022-10-20T02:10:52.254Z,2.97
2022-10-20T02:12:13.406Z,2.96
2022-10-20T02:13:18.661Z,2.95
2022-10-20T02:14:22.770Z,2.93
2022-10-20T02:15:27.877Z,2.92
2022-10-20T02:16:46.480Z,2.91
2022-10-20T02:17:54.010Z,2.91
2022-10-20T02:20:00.773Z,2.91
2022-10-20T02:21:05.430Z,2.92
2022-10-20T02:22:09.802Z,2.93
2022-10-20T02:23:11.994Z,2.94
2022-10-20T02:24:17.328Z,2.92
2022-10-20T02:25:20.307Z,2.93
2022-10-20T02:26:25.470Z,2.93
2022-10-20T02:27:35.435Z,2.92
2022-10-20T02:28:43.070Z,2.91
2022-10-20T02:29:50.682Z,2.89
2022-10-20T02:30:52.777Z,2.88
2022-10-20T02:31:55.973Z,2.88
2022-10-20T02:32:57.609Z,2.87
2022-10-20T02:33:59.284Z,2.86
2022-10-20T02:35:06.709Z,2.85
2022-10-20T02:36:16.833Z,2.84
2022-10-20T02:37:18.496Z,2.84
2022-10-20T02:38:20.162Z,2.84
2022-10-20T02:39:21.920Z,2.82
2022-10-20T02:40:23.854Z,2.80
2022-10-20T02:41:26.665Z,2.80
2022-10-20T02:42:28.267Z,2.79
2022-10-20T02:43:30.146Z,2.79
2022-10-20T02:44:31.946Z,2.79
2022-10-20T02:45:33.557Z,2.77
2022-10-20T02:46:35.161Z,2.76
2022-10-20T02:47:37.081Z,2.74
2022-10-20T02:48:39.148Z,2.72
2022-10-20T02:49:40.786Z,2.71
2022-10-20T02:50:42.526Z,2.71
2022-10-20T02:51:44.133Z,2.71
2022-10-20T02:52:45.717Z,2.70
2022-10-20T02:53:47.465Z,2.69
2022-10-20T02:54:49.041Z,2.68
2022-10-20T02:55:50.614Z,2.69
2022-10-20T02:56:52.200Z,2.67
2022-10-20T02:57:54.062Z,2.64
2022-10-20T02:58:55.768Z,2.62
2022-10-20T02:59:57.468Z,2.62
2022-10-20T03:00:59.156Z,2.60
2022-10-20T03:02:00.788Z,2.58
2022-10-20T03:03:02.467Z,2.57
2022-10-20T03:04:04.226Z,2.55
2022-10-20T03:05:06.387Z,2.53
2022-10-20T03:06:13.925Z,2.52
2022-10-20T03:07:15.617Z,2.50
2022-10-20T03:08:17.314Z,2.50
2022-10-20T03:09:18.922Z,2.51
2022-10-20T03:10:20.696Z,2.51
2022-10-20T03:11:22.822Z,2.52
2022-10-20T03:12:27.723Z,2.53
2022-10-20T03:13:32.303Z,2.50
2022-10-20T03:14:33.891Z,2.49
2022-10-20T03:15:36.225Z,2.49
2022-10-20T03:16:37.862Z,2.48
2022-10-20T03:17:39.575Z,2.48
2022-10-20T03:18:41.275Z,2.47
2022-10-20T03:19:43.027Z,2.45
2022-10-20T03:20:44.865Z,2.45
2022-10-20T03:21:46.868Z,2.43
2022-10-20T03:22:48.519Z,2.41
2022-10-20T03:23:50.169Z,2.40
2022-10-20T03:24:51.904Z,2.39
2022-10-20T03:25:53.663Z,2.38
2022-10-20T03:26:55.281Z,2.39
2022-10-20T03:27:56.915Z,2.38
2022-10-20T03:28:58.536Z,2.38
2022-10-20T03:30:00.211Z,2.37
2022-10-20T03:31:02.026Z,2.36
2022-10-20T03:32:03.772Z,2.35
2022-10-20T03:33:05.719Z,2.33
2022-10-20T03:34:07.403Z,2.33
2022-10-20T03:35:09.492Z,2.31
2022-10-20T03:36:11.925Z,2.31
2022-10-20T03:37:13.611Z,2.32
2022-10-20T03:38:15.536Z,2.31
2022-10-20T03:39:17.143Z,2.31
2022-10-20T03:40:18.768Z,2.32
2022-10-20T03:41:20.557Z,2.32
2022-10-20T03:42:22.187Z,2.33
2022-10-20T03:43:23.797Z,2.34
2022-10-20T03:44:25.409Z,2.35
2022-10-20T03:45:27.100Z,2.36
2022-10-20T03:46:28.733Z,2.37
2022-10-20T03:47:30.327Z,2.40
2022-10-20T03:48:32.009Z,2.43
2022-10-20T03:49:34.059Z,2.46
2022-10-20T03:50:38.450Z,2.49
2022-10-20T03:51:40.120Z,2.50
2022-10-20T03:52:41.953Z,2.53
2022-10-20T03:53:44.324Z,2.53
2022-10-20T03:54:45.928Z,2.54
2022-10-20T03:55:47.541Z,2.54
2022-10-20T03:56:49.221Z,2.54
2022-10-20T03:57:50.890Z,2.55
2022-10-20T03:58:52.529Z,2.57
2022-10-20T03:59:54.119Z,2.58
2022-10-20T04:00:55.820Z,2.59
2022-10-20T04:01:57.902Z,2.62
2022-10-20T04:02:59.601Z,2.63
2022-10-20T04:04:01.262Z,2.61
2022-10-20T04:05:03.354Z,2.58
2022-10-20T04:06:05.160Z,2.54
2022-10-20T04:07:06.787Z,2.50
2022-10-20T04:08:08.425Z,2.46
2022-10-20T04:09:10.082Z,2.43
2022-10-20T04:10:13.477Z,2.40
2022-10-20T04:11:15.078Z,2.39
2022-10-20T04:12:16.757Z,2.37
2022-10-20T04:13:18.395Z,2.36
2022-10-20T04:14:20.105Z,2.35
2022-10-20T04:15:21.698Z,2.34
2022-10-20T04:16:24.095Z,2.32
2022-10-20T04:17:25.860Z,2.29
2022-10-20T04:18:27.452Z,2.27
2022-10-20T04:19:29.045Z,2.26
2022-10-20T04:20:30.657Z,2.24
2022-10-20T04:21:32.331Z,2.22
2022-10-20T04:22:34.598Z,2.19
2022-10-20T04:23:36.825Z,2.17
2022-10-20T04:24:38.697Z,2.16
2022-10-20T04:25:45.605Z,2.17
2022-10-20T04:27:55.365Z,2.16
2022-10-20T04:28:57.326Z,2.16
2022-10-20T04:29:58.969Z,2.15
2022-10-20T04:31:00.874Z,2.16
2022-10-20T04:32:02.528Z,2.16
2022-10-20T04:33:04.395Z,2.12
2022-10-20T04:34:06.104Z,2.14
2022-10-20T04:35:08.230Z,2.12
2022-10-20T04:36:12.822Z,2.10
2022-10-20T04:37:14.410Z,2.10
2022-10-20T04:38:16.095Z,2.08
2022-10-20T04:39:17.998Z,2.09
2022-10-20T04:40:19.589Z,2.08
2022-10-20T04:41:21.233Z,2.09
2022-10-20T04:42:22.846Z,2.10
2022-10-20T04:43:24.989Z,2.11
2022-10-20T04:44:26.623Z,2.13
2022-10-20T04:45:28.667Z,2.12
2022-10-20T04:46:30.548Z,2.11
2022-10-20T04:47:33.882Z,2.12
2022-10-20T04:48:37.463Z,2.13
2022-10-20T04:49:41.174Z,2.15
2022-10-20T04:50:42.965Z,2.14
2022-10-20T04:51:44.606Z,2.12
2022-10-20T04:52:46.225Z,2.11
2022-10-20T04:53:47.836Z,2.09
2022-10-20T04:54:49.853Z,2.08
2022-10-20T04:55:55.497Z,2.08
2022-10-20T04:56:57.306Z,2.07
2022-10-20T04:57:58.915Z,2.04
2022-10-20T04:59:00.569Z,2.03
2022-10-20T05:00:02.370Z,2.01
2022-10-20T05:01:07.741Z,2.00
2022-10-20T05:02:11.327Z,2.00
2022-10-20T05:03:12.941Z,2.01
2022-10-20T05:04:20.902Z,2.03
2022-10-20T05:05:22.521Z,2.03
2022-10-20T05:06:27.366Z,2.00
2022-10-20T05:07:30.629Z,1.98
2022-10-20T05:08:32.310Z,1.98
2022-10-20T05:09:34.061Z,1.99
2022-10-20T05:10:36.706Z,1.98
2022-10-20T05:11:39.024Z,1.96
2022-10-20T05:12:40.630Z,1.92
2022-10-20T05:13:43.208Z,1.86
2022-10-20T05:14:44.774Z,1.79
2022-10-20T05:15:52.296Z,1.75
2022-10-20T05:16:54.044Z,1.70
2022-10-20T05:17:55.754Z,1.65
2022-10-20T05:18:58.181Z,1.63
2022-10-20T05:19:59.842Z,1.62
2022-10-20T05:21:14.044Z,1.62
2022-10-20T05:22:15.664Z,1.65
2022-10-20T05:23:17.252Z,1.67
2022-10-20T05:24:21.375Z,1.71
2022-10-20T05:25:36.079Z,1.75
2022-10-20T05:26:38.567Z,1.79
2022-10-20T05:27:40.249Z,1.82
2022-10-20T05:28:48.129Z,1.85
2022-10-20T05:29:49.708Z,1.87
2022-10-20T05:30:51.399Z,1.86
2022-10-20T05:31:53.017Z,1.83
2022-10-20T05:32:54.630Z,1.79
2022-10-20T05:33:57.815Z,1.74
2022-10-20T05:34:59.424Z,1.70
2022-10-20T05:36:06.410Z,1.67
2022-10-20T05:37:08.057Z,1.64
2022-10-20T05:38:09.659Z,1.62
2022-10-20T05:39:11.611Z,1.61
2022-10-20T05:40:13.259Z,1.60
2022-10-20T05:41:17.785Z,1.60
2022-10-20T05:42:19.543Z,1.61
2022-10-20T05:43:21.270Z,1.62
2022-10-20T05:44:22.889Z,1.62
2022-10-20T05:45:24.551Z,1.63
2022-10-20T05:46:29.490Z,1.64
2022-10-20T05:47:31.270Z,1.64
2022-10-20T05:48:34.045Z,1.65
2022-10-20T05:49:35.756Z,1.67
2022-10-20T05:50:37.557Z,1.69
2022-10-20T05:51:39.312Z,1.72
2022-10-20T05:52:40.969Z,1.74
2022-10-20T05:53:44.019Z,1.78
2022-10-20T05:54:45.676Z,1.83
2022-10-20T05:55:47.312Z,1.86
2022-10-20T05:56:48.969Z,1.91
2022-10-20T05:57:51.743Z,1.95
2022-10-20T05:58:53.498Z,2.00
2022-10-20T05:59:55.142Z,2.03
2022-10-20T06:01:05.761Z,2.08
2022-10-20T06:02:09.948Z,2.15
2022-10-20T06:03:13.860Z,2.18
2022-10-20T06:04:28.126Z,2.22
2022-10-20T06:05:29.764Z,2.29
2022-10-20T06:06:31.762Z,2.33
2022-10-20T06:07:33.522Z,2.38
2022-10-20T06:08:35.234Z,2.42
2022-10-20T06:09:38.395Z,2.48
2022-10-20T06:10:40.222Z,2.55
2022-10-20T06:11:41.908Z,2.63
2022-10-20T06:12:43.520Z,2.70
2022-10-20T06:13:48.490Z,2.80
2022-10-20T06:14:53.433Z,2.91
2022-10-20T06:15:55.046Z,3.00
2022-10-20T06:16:57.492Z,3.10
2022-10-20T06:17:59.109Z,3.19
2022-10-20T06:19:00.826Z,3.24
2022-10-20T06:20:02.541Z,3.29
2022-10-20T06:21:11.101Z,3.33
2022-10-20T06:22:13.628Z,3.41
2022-10-20T06:23:15.266Z,3.49
2022-10-20T06:24:18.711Z,3.57
2022-10-20T06:25:20.352Z,3.64
2022-10-20T06:26:24.509Z,3.70
2022-10-20T06:27:26.131Z,3.78
2022-10-20T06:28:30.550Z,3.86
2022-10-20T06:29:32.244Z,3.95
2022-10-20T06:30:33.834Z,4.04
2022-10-20T06:31:41.331Z,4.12
2022-10-20T06:32:43.007Z,4.21
2022-10-20T06:33:46.202Z,4.26
2022-10-20T06:34:47.936Z,4.33
2022-10-20T06:35:49.579Z,4.40
2022-10-20T06:36:52.240Z,4.47
2022-10-20T06:37:54.227Z,4.57
2022-10-20T06:38:59.219Z,4.63
2022-10-20T06:40:00.921Z,4.70
2022-10-20T06:41:04.092Z,4.78
2022-10-20T06:42:09.647Z,4.84
2022-10-20T06:43:19.780Z,4.92
2022-10-20T06:44:24.112Z,4.98
2022-10-20T06:45:25.780Z,5.04
2022-10-20T06:46:30.279Z,5.09
2022-10-20T06:47:31.970Z,5.15
2022-10-20T06:48:35.025Z,5.21
2022-10-20T06:49:37.357Z,5.25
2022-10-20T06:50:39.205Z,5.30
2022-10-20T06:51:41.156Z,5.35
2022-10-20T06:52:42.861Z,5.40
2022-10-20T06:53:46.888Z,5.46
2022-10-20T06:54:48.769Z,5.51
2022-10-20T06:56:02.315Z,5.56
2022-10-20T06:57:04.078Z,5.63
2022-10-20T06:58:05.722Z,5.67
2022-10-20T06:59:07.407Z,5.71
2022-10-20T07:00:09.618Z,5.72
2022-10-20T07:01:14.872Z,5.75
2022-10-20T07:02:17.306Z,5.79
2022-10-20T07:03:18.974Z,5.83
2022-10-20T07:04:20.905Z,5.87
2022-10-20T07:05:22.615Z,5.90
2022-10-20T07:06:30.792Z,5.92
2022-10-20T07:07:32.537Z,5.96
2022-10-20T07:08:36.190Z,5.98
2022-10-20T07:09:38.023Z,6.00
2022-10-20T07:10:39.728Z,6.00
2022-10-20T07:11:42.190Z,6.01
2022-10-20T07:12:43.830Z,6.03
2022-10-20T07:13:46.848Z,6.08
2022-10-20T07:14:48.829Z,6.14
2022-10-20T07:15:55.112Z,6.18
2022-10-20T07:16:56.820Z,6.22
2022-10-20T07:17:58.514Z,6.26
2022-10-20T07:19:03.069Z,6.28
2022-10-20T07:20:05.917Z,6.30
2022-10-20T07:21:13.028Z,6.32
2022-10-20T07:22:14.694Z,6.35
2022-10-20T07:23:16.512Z,6.36
2022-10-20T07:24:18.089Z,6.37
2022-10-20T07:25:21.832Z,6.38
2022-10-20T07:26:26.649Z,6.39
2022-10-20T07:27:28.267Z,6.40
2022-10-20T07:28:30.226Z,6.41
2022-10-20T07:30:40.213Z,6.49
2022-10-20T07:31:47.336Z,6.53
2022-10-20T07:32:49.310Z,6.57
2022-10-20T07:34:06.758Z,6.61
2022-10-20T07:35:13.345Z,6.64
2022-10-20T07:36:17.995Z,6.67
2022-10-20T07:37:19.647Z,6.73
2022-10-20T07:38:21.268Z,6.79
2022-10-20T07:39:23.738Z,6.85
2022-10-20T07:41:32.308Z,6.91
2022-10-20T07:42:34.230Z,6.95
2022-10-20T07:43:37.680Z,6.99
2022-10-20T07:44:39.278Z,7.04
2022-10-20T07:45:40.966Z,7.06
2022-10-20T07:46:42.591Z,7.06
2022-10-20T07:47:47.603Z,7.07
2022-10-20T07:48:49.572Z,7.06
2022-10-20T07:49:51.194Z,7.08
2022-10-20T07:50:52.861Z,7.12
2022-10-20T07:51:55.436Z,7.14
2022-10-20T07:52:57.097Z,7.16
2022-10-20T07:54:02.155Z,7.18
2022-10-20T07:55:17.738Z,7.19
2022-10-20T07:56:29.067Z,7.23
2022-10-20T07:57:30.713Z,7.26
2022-10-20T07:58:32.368Z,7.27
2022-10-20T07:59:34.579Z,7.28
2022-10-20T08:00:36.489Z,7.28
2022-10-20T08:01:38.645Z,7.28
2022-10-20T08:02:43.220Z,7.30
2022-10-20T08:03:44.832Z,7.33
2022-10-20T08:04:46.564Z,7.36
2022-10-20T08:05:48.245Z,7.40
2022-10-20T08:06:49.925Z,7.45
2022-10-20T08:07:51.583Z,7.47
2022-10-20T08:08:54.808Z,7.51
2022-10-20T08:09:56.541Z,7.53
2022-10-20T08:10:58.653Z,7.55
2022-10-20T08:12:00.354Z,7.56
2022-10-20T08:13:02.263Z,7.59
2022-10-20T08:14:04.439Z,7.63
2022-10-20T08:15:06.446Z,7.67
2022-10-20T08:16:17.254Z,7.70
2022-10-20T08:17:19.356Z,7.74
2022-10-20T08:18:26.277Z,7.75
2022-10-20T08:19:35.757Z,7.76
2022-10-20T08:20:37.478Z,7.78
2022-10-20T08:21:39.106Z,7.82
2022-10-20T08:22:40.753Z,7.85
2022-10-20T08:23:45.604Z,7.85
2022-10-20T08:24:47.796Z,7.82
2022-10-20T08:25:55.893Z,7.82
2022-10-20T08:26:57.513Z,7.83
2022-10-20T08:29:06.250Z,7.89
2022-10-20T08:30:24.338Z,7.89
2022-10-20T08:31:26.213Z,7.90
2022-10-20T08:32:27.810Z,7.90
2022-10-20T08:33:29.503Z,7.93
2022-10-20T08:34:31.313Z,7.99
2022-10-20T08:35:33.089Z,8.02
2022-10-20T08:36:34.805Z,8.05
2022-10-20T08:37:36.790Z,8.07
2022-10-20T08:38:39.775Z,8.10
2022-10-20T08:39:42.268Z,8.15
2022-10-20T08:40:44.530Z,8.21
2022-10-20T08:43:19.872Z,8.34
2022-10-20T08:44:29.098Z,8.40
2022-10-20T08:45:34.715Z,8.44
2022-10-20T08:46:40.899Z,8.45
2022-10-20T08:47:45.440Z,8.42
2022-10-20T08:48:48.529Z,8.40
2022-10-20T08:49:50.907Z,8.38
2022-10-20T08:50:54.142Z,8.37
2022-10-20T08:51:55.846Z,8.34
2022-10-20T08:53:00.665Z,8.35
2022-10-20T08:54:03.381Z,8.37
2022-10-20T08:55:06.247Z,8.40
2022-10-20T08:56:13.180Z,8.42
2022-10-20T08:57:35.918Z,8.47
2022-10-20T08:58:43.414Z,8.47
2022-10-20T08:59:45.045Z,8.41
2022-10-20T09:00:48.588Z,8.37
2022-10-20T09:01:50.372Z,8.35
2022-10-20T09:02:52.277Z,8.35
2022-10-20T09:04:24.876Z,8.38
2022-10-20T09:05:31.458Z,8.52
2022-10-20T09:06:35.294Z,8.65
2022-10-20T09:07:39.800Z,8.80
2022-10-20T09:08:43.881Z,8.94
2022-10-20T09:09:46.701Z,9.09
2022-10-20T09:10:52.352Z,9.19
2022-10-20T09:12:04.557Z,9.30
2022-10-20T09:13:23.571Z,9.40
2022-10-20T09:14:26.370Z,9.48
2022-10-20T09:15:29.623Z,9.53
2022-10-20T09:16:42.015Z,9.59
2022-10-20T09:18:00.954Z,9.64
2022-10-20T09:19:03.003Z,9.73
2022-10-20T09:20:18.428Z,9.80
2022-10-20T09:21:22.651Z,9.85
2022-10-20T09:22:32.146Z,9.89
2022-10-20T09:23:42.452Z,9.96
2022-10-20T09:24:46.738Z,10.04
2022-10-20T09:25:51.501Z,10.12
2022-10-20T09:26:58.600Z,10.18
2022-10-20T09:28:01.398Z,10.20
2022-10-20T09:29:15.188Z,10.15
2022-10-20T09:30:21.080Z,10.03
2022-10-20T09:31:32.822Z,9.94
2022-10-20T09:32:51.407Z,9.89
2022-10-20T09:33:53.184Z,9.83
2022-10-20T09:35:19.483Z,9.82
2022-10-20T09:36:23.595Z,9.82
2022-10-20T09:37:25.391Z,9.82
2022-10-20T09:38:29.827Z,9.80
2022-10-20T09:39:49.216Z,9.80
2022-10-20T09:41:17.333Z,9.83
2022-10-20T09:42:27.834Z,9.86
2022-10-20T09:43:29.696Z,9.90
2022-10-20T09:44:35.913Z,9.93
2022-10-20T09:46:00.015Z,9.94
2022-10-20T09:47:02.680Z,9.96
2022-10-20T09:48:29.008Z,9.99
2022-10-20T09:49:39.561Z,10.04
2022-10-20T09:50:50.020Z,10.08
2022-10-20T09:53:05.827Z,10.15
2022-10-20T09:54:18.304Z,10.19
2022-10-20T09:55:25.899Z,10.23
2022-10-20T09:56:35.443Z,10.27
2022-10-20T09:57:37.159Z,10.30
2022-10-20T09:58:39.790Z,10.31
2022-10-20T09:59:46.978Z,10.34
2022-10-20T10:00:59.565Z,10.41
2022-10-20T10:02:13.433Z,10.49
2022-10-20T10:03:22.448Z,10.54
2022-10-20T10:04:42.646Z,10.55
2022-10-20T10:05:44.382Z,10.47
2022-10-20T10:06:46.253Z,10.35
2022-10-20T10:07:59.796Z,10.20
2022-10-20T10:09:02.695Z,10.04
2022-10-20T10:10:24.122Z,9.94
2022-10-20T10:11:34.289Z,9.81
2022-10-20T10:12:36.776Z,9.68
2022-10-20T10:13:44.154Z,9.58
2022-10-20T10:14:55.971Z,9.51
2022-10-20T10:16:04.457Z,9.47
2022-10-20T10:17:06.186Z,9.43
2022-10-20T10:18:23.093Z,9.40
2022-10-20T10:19:31.753Z,9.36
2022-10-20T10:20:41.041Z,9.31
2022-10-20T10:21:51.462Z,9.25
2022-10-20T10:22:53.255Z,9.23
2022-10-20T10:23:59.161Z,9.21
2022-10-20T10:25:01.998Z,9.20
2022-10-20T10:26:26.141Z,9.18
2022-10-20T10:27:33.465Z,9.17
2022-10-20T10:28:40.202Z,9.16
2022-10-20T10:29:41.870Z,9.16
2022-10-20T10:30:46.918Z,9.14
2022-10-20T10:32:25.304Z,9.12
2022-10-20T10:33:29.074Z,9.08
2022-10-20T10:34:59.900Z,9.06
2022-10-20T10:36:05.452Z,9.07
2022-10-20T10:37:13.793Z,9.09
2022-10-20T10:38:15.649Z,9.13
2022-10-20T10:39:17.309Z,9.16
2022-10-20T10:40:22.369Z,9.19
2022-10-20T10:41:41.690Z,9.25
2022-10-20T10:42:55.988Z,9.33
2022-10-20T10:44:15.647Z,9.42
2022-10-20T10:45:51.518Z,9.58
2022-10-20T10:47:20.648Z,9.99
2022-10-20T10:48:59.293Z,10.53
2022-10-20T10:50:24.579Z,11.09
2022-10-20T10:52:04.085Z,11.57
2022-10-20T10:53:20.970Z,12.14
2022-10-20T10:54:41.864Z,12.57
2022-10-20T10:55:57.232Z,12.88
2022-10-20T10:57:31.474Z,13.12
2022-10-20T10:58:46.987Z,13.45
2022-10-20T10:59:52.267Z,13.57
2022-10-20T11:01:09.706Z,13.78
2022-10-20T11:02:46.172Z,14.06
2022-10-20T11:04:05.812Z,14.36
2022-10-20T11:05:21.376Z,14.53
2022-10-20T11:06:37.887Z,14.50
2022-10-20T11:08:17.057Z,14.38
2022-10-20T11:09:32.991Z,14.32
2022-10-20T11:11:01.771Z,14.34
2022-10-20T11:13:00.402Z,14.56
2022-10-20T11:14:17.181Z,14.88
2022-10-20T11:15:33.910Z,15.02
2022-10-20T11:17:17.072Z,14.99
2022-10-20T11:18:51.670Z,14.66
2022-10-20T11:20:07.073Z,14.22
2022-10-20T11:21:20.553Z,13.84
2022-10-20T11:22:51.054Z,13.43
2022-10-20T11:24:30.193Z,12.94
2022-10-20T11:26:13.205Z,12.56
2022-10-20T11:27:22.516Z,12.24
2022-10-20T11:28:44.211Z,12.05
2022-10-20T11:29:55.044Z,11.88
2022-10-20T11:30:59.424Z,11.76
2022-10-20T11:32:18.482Z,11.64
2022-10-20T11:33:26.786Z,11.50
2022-10-20T11:34:44.518Z,11.33
2022-10-20T11:35:51.838Z,11.19
2022-10-20T11:37:06.266Z,11.13
2022-10-20T11:38:37.183Z,11.06
2022-10-20T11:39:50.133Z,10.97
2022-10-20T11:41:12.565Z,10.91
2022-10-20T11:42:50.279Z,10.83
2022-10-20T11:44:21.518Z,10.80
2022-10-20T11:45:35.719Z,10.75
2022-10-20T11:46:43.112Z,10.67
2022-10-20T11:47:46.452Z,10.59
2022-10-20T11:48:52.001Z,10.52
2022-10-20T11:49:53.905Z,10.46
2022-10-20T11:51:15.131Z,10.40
2022-10-20T11:52:41.383Z,10.32
2022-10-20T11:54:00.675Z,10.26
2022-10-20T11:55:14.969Z,10.18
2022-10-20T11:56:44.538Z,10.11
2022-10-20T11:58:16.417Z,10.04
2022-10-20T11:59:39.804Z,10.00
2022-10-20T12:01:03.424Z,10.02
2022-10-20T12:02:42.670Z,10.02
2022-10-20T12:04:22.017Z,10.01
2022-10-20T12:05:48.200Z,10.00
2022-10-20T12:07:24.049Z,9.99
2022-10-20T12:08:45.574Z,9.99
2022-10-20T12:10:11.262Z,10.03
2022-10-20T12:11:18.068Z,10.09
2022-10-20T12:12:39.042Z,10.13
2022-10-20T12:14:10.763Z,10.19
2022-10-20T12:15:27.962Z,10.25
2022-10-20T12:16:54.431Z,10.31
2022-10-20T12:18:15.920Z,10.38
2022-10-20T12:19:22.011Z,10.46
2022-10-20T12:20:23.547Z,10.50
2022-10-20T12:21:57.457Z,10.53
2022-10-20T12:22:59.227Z,10.56
2022-10-20T12:24:04.050Z,10.59
2022-10-20T12:25:05.557Z,10.59
2022-10-20T12:26:29.737Z,10.58
2022-10-20T12:27:32.758Z,10.59
2022-10-20T12:28:41.197Z,10.61
2022-10-20T12:29:42.830Z,10.63
2022-10-20T12:30:53.090Z,10.66
2022-10-20T12:32:25.460Z,10.69
2022-10-20T12:33:49.843Z,10.74
2022-10-20T12:35:01.642Z,10.74
2022-10-20T12:36:23.956Z,10.76
2022-10-20T12:37:25.605Z,10.81
2022-10-20T12:38:30.296Z,10.85
2022-10-20T12:39:31.998Z,10.85
2022-10-20T12:40:49.149Z,10.82
2022-10-20T12:42:01.848Z,10.77
2022-10-20T12:43:03.770Z,10.74
2022-10-20T12:44:18.747Z,10.71
2022-10-20T12:45:20.472Z,10.70
2022-10-20T12:46:28.373Z,10.70
2022-10-20T12:47:33.439Z,10.72
2022-10-20T12:48:43.654Z,10.73
2022-10-20T12:50:06.249Z,10.74
2022-10-20T12:51:20.994Z,10.76
2022-10-20T12:52:32.513Z,10.77
2022-10-20T12:53:35.251Z,10.77
2022-10-20T12:54:46.201Z,10.77
2022-10-20T12:56:09.073Z,10.77
2022-10-20T12:57:41.930Z,10.76
2022-10-20T12:59:08.120Z,10.76
2022-10-20T13:00:30.107Z,10.77
2022-10-20T13:02:09.960Z,10.90
2022-10-20T13:03:31.694Z,11.56
2022-10-20T13:04:53.682Z,12.21
2022-10-20T13:05:55.410Z,12.85
2022-10-20T13:06:57.068Z,13.29
2022-10-20T13:07:59.767Z,13.68
2022-10-20T13:09:04.525Z,14.08
2022-10-20T13:10:31.480Z,14.53
2022-10-20T13:11:36.058Z,15.06
2022-10-20T13:12:40.167Z,15.40
2022-10-20T13:14:07.499Z,15.69
2022-10-20T13:15:17.556Z,16.07
2022-10-20T13:16:23.010Z,16.38
2022-10-20T13:17:44.052Z,16.67
2022-10-20T13:18:50.468Z,17.06
2022-10-20T13:20:01.587Z,17.32
2022-10-20T13:21:26.108Z,17.46
2022-10-20T13:22:31.043Z,17.55
2022-10-20T13:23:43.213Z,17.71
2022-10-20T13:24:45.119Z,17.92
2022-10-20T13:25:52.125Z,18.05
2022-10-20T13:26:57.669Z,18.23
2022-10-20T13:28:14.625Z,18.45
2022-10-20T13:29:34.455Z,18.55
2022-10-20T13:30:36.849Z,18.75
2022-10-20T13:31:51.784Z,18.91
2022-10-20T13:34:02.060Z,19.02
2022-10-20T13:34:55.609Z,19.04
2022-10-20T13:36:12.401Z,18.94
2022-10-20T13:37:25.545Z,18.80
2022-10-20T13:38:42.382Z,18.81
2022-10-20T13:39:46.974Z,18.93
2022-10-20T13:41:12.135Z,19.01
2022-10-20T13:42:41.859Z,19.03
2022-10-20T13:44:04.576Z,18.99
2022-10-20T13:45:21.597Z,18.91
2022-10-20T13:46:59.747Z,18.79
2022-10-20T13:48:22.701Z,18.62
2022-10-20T13:49:43.713Z,18.55
2022-10-20T13:50:59.171Z,18.43
2022-10-20T13:52:11.584Z,18.30
2022-10-20T13:53:20.673Z,18.17
2022-10-20T13:54:27.816Z,18.10
2022-10-20T13:55:51.114Z,18.03
2022-10-20T13:56:55.082Z,17.95
2022-10-20T13:58:16.670Z,17.90
2022-10-20T13:59:25.038Z,17.90
2022-10-20T14:00:31.513Z,17.92
2022-10-20T14:01:36.449Z,17.94
2022-10-20T14:02:38.414Z,17.97
2022-10-20T14:03:44.407Z,17.87
2022-10-20T14:04:46.062Z,17.72
2022-10-20T14:05:47.881Z,17.60
2022-10-20T14:06:49.529Z,17.51
2022-10-20T14:07:52.174Z,17.48
2022-10-20T14:08:54.991Z,17.53
2022-10-20T14:09:58.234Z,17.60
2022-10-20T14:11:04.567Z,17.64
2022-10-20T14:12:22.721Z,17.72
2022-10-20T14:13:28.964Z,17.83
2022-10-20T14:14:31.583Z,17.91
2022-10-20T14:15:36.780Z,17.90
2022-10-20T14:16:39.284Z,17.81
2022-10-20T14:17:41.067Z,17.77
2022-10-20T14:18:42.709Z,17.71
2022-10-20T14:19:46.093Z,17.63
2022-10-20T14:21:05.355Z,17.58
2022-10-20T14:22:22.455Z,17.51
2022-10-20T14:23:26.154Z,17.51
2022-10-20T14:24:40.360Z,17.50
2022-10-20T14:25:43.796Z,17.49
2022-10-20T14:26:46.165Z,17.48
2022-10-20T14:27:48.317Z,17.40
2022-10-20T14:28:52.735Z,17.34
2022-10-20T14:29:56.681Z,17.29
2022-10-20T14:30:59.873Z,17.18
2022-10-20T14:32:02.006Z,16.97
2022-10-20T14:33:03.940Z,16.71
2022-10-20T14:34:05.678Z,16.43
2022-10-20T14:35:32.849Z,16.20
2022-10-20T14:36:34.572Z,15.99
2022-10-20T14:37:41.546Z,15.94
2022-10-20T14:38:49.429Z,15.89
2022-10-20T14:39:51.275Z,15.75
2022-10-20T14:40:56.795Z,15.38
2022-10-20T14:42:01.960Z,14.91
2022-10-20T14:43:15.234Z,14.45
2022-10-20T14:44:31.025Z,13.99
2022-10-20T14:45:33.722Z,13.56
2022-10-20T14:46:41.350Z,13.28
2022-10-20T14:47:43.088Z,12.98
2022-10-20T14:48:49.066Z,12.72
2022-10-20T14:49:54.960Z,12.49
2022-10-20T14:50:57.099Z,12.30
2022-10-20T14:52:00.657Z,12.11
2022-10-20T14:53:27.371Z,11.92
2022-10-20T14:54:32.609Z,11.64
2022-10-20T14:55:37.224Z,11.46
2022-10-20T14:56:54.372Z,11.24
2022-10-20T14:57:56.328Z,10.97
2022-10-20T14:59:02.415Z,10.78
2022-10-20T15:00:27.745Z,10.61
2022-10-20T15:01:32.604Z,10.40
2022-10-20T15:02:41.762Z,10.28